createdAt,value
2023-02-06T01:46:59.985Z,99544.00
2023-02-06T01:49:47.630Z,99541.00
2023-02-06T01:52:25.216Z,99533.00
2023-02-06T01:54:58.583Z,99536.00
2023-02-06T01:57:27.585Z,99535.00
2023-02-06T02:00:04.463Z,99526.00
2023-02-06T02:02:32.814Z,99533.00
2023-02-06T02:05:01.661Z,99524.00
2023-02-06T02:07:55.303Z,99521.00
2023-02-06T02:10:22.393Z,99523.00
2023-02-06T02:12:49.502Z,99535.00
2023-02-06T02:15:16.687Z,99531.00
2023-02-06T02:17:55.525Z,99533.00
2023-02-06T02:20:38.570Z,99530.00
2023-02-06T02:23:41.960Z,99524.00
2023-02-06T02:27:01.387Z,99529.00
2023-02-06T02:30:38.373Z,99527.00
2023-02-06T02:33:11.257Z,99537.00
2023-02-06T02:36:17.875Z,99540.00
2023-02-06T02:39:16.356Z,99546.00
2023-02-06T02:42:02.109Z,99546.00
2023-02-06T02:44:55.783Z,99542.00
2023-02-06T02:47:32.842Z,99551.00
2023-02-06T02:50:02.773Z,99529.00
2023-02-06T02:52:29.900Z,99529.00
2023-02-06T02:54:57.139Z,99534.00
2023-02-06T02:57:30.855Z,99527.00
2023-02-06T03:00:00.640Z,99532.00
2023-02-06T03:02:38.166Z,99532.00
2023-02-06T03:05:12.221Z,99539.00
2023-02-06T03:08:24.750Z,99528.00
2023-02-06T03:11:04.326Z,99538.00
2023-02-06T03:13:51.938Z,99537.00
2023-02-06T03:16:29.303Z,99542.00
2023-02-06T03:19:13.205Z,99544.00
2023-02-06T03:21:41.920Z,99539.00
2023-02-06T03:24:16.238Z,99533.00
2023-02-06T03:26:45.338Z,99539.00
2023-02-06T03:29:15.748Z,99535.00
2023-02-06T03:31:57.363Z,99528.00
2023-02-06T03:34:54.246Z,99538.00
2023-02-06T03:37:22.862Z,99538.00
2023-02-06T03:39:50.040Z,99535.00
2023-02-06T03:42:18.140Z,99545.00
2023-02-06T03:44:52.148Z,99557.00
2023-02-06T03:47:20.617Z,99568.00
2023-02-06T03:49:50.100Z,99547.00
2023-02-06T03:52:24.182Z,99554.00
2023-02-06T03:55:00.110Z,99557.00
2023-02-06T03:57:30.941Z,99566.00
2023-02-06T03:59:58.179Z,99557.00
2023-02-06T04:02:26.842Z,99557.00
2023-02-06T04:04:54.064Z,99569.00
2023-02-06T04:07:28.005Z,99569.00
2023-02-06T04:09:55.382Z,99560.00
2023-02-06T04:12:23.969Z,99572.00
2023-02-06T04:14:51.916Z,99569.00
2023-02-06T04:17:38.427Z,99547.00
2023-02-06T04:20:07.551Z,99554.00
2023-02-06T04:22:34.925Z,99552.00
2023-02-06T04:25:02.010Z,99544.00
2023-02-06T04:27:29.103Z,99552.00
2023-02-06T04:29:56.204Z,99547.00
2023-02-06T04:32:23.473Z,99529.00
2023-02-06T04:34:50.764Z,99523.00
2023-02-06T04:37:17.929Z,99513.00
2023-02-06T04:39:44.938Z,99513.00
2023-02-06T04:42:11.946Z,99519.00
2023-02-06T04:44:39.302Z,99523.00
2023-02-06T04:47:06.879Z,99520.00
2023-02-06T04:49:33.998Z,99507.00
2023-02-06T04:52:00.991Z,99516.00
2023-02-06T04:54:28.047Z,99510.00
2023-02-06T04:56:55.266Z,99516.00
2023-02-06T04:59:22.326Z,99514.00
2023-02-06T05:01:49.467Z,99521.00
2023-02-06T05:04:16.602Z,99525.00
2023-02-06T05:06:43.702Z,99513.00
2023-02-06T05:09:11.052Z,99531.00
2023-02-06T05:11:38.148Z,99527.00
2023-02-06T05:14:05.205Z,99522.00
2023-02-06T05:16:32.275Z,99523.00
2023-02-06T05:18:59.476Z,99516.00
2023-02-06T05:21:26.819Z,99533.00
2023-02-06T05:23:54.089Z,99519.00
2023-02-06T05:26:21.898Z,99500.00
2023-02-06T05:28:48.978Z,99503.00
2023-02-06T05:31:20.201Z,99511.00
2023-02-06T05:33:51.093Z,99502.00
2023-02-06T05:36:20.070Z,99503.00
2023-02-06T05:38:47.875Z,99496.00
2023-02-06T05:41:16.316Z,99491.00
2023-02-06T05:43:43.604Z,99480.00
2023-02-06T05:46:13.206Z,99489.00
2023-02-06T05:48:40.817Z,99489.00
2023-02-06T05:51:08.778Z,99493.00
2023-02-06T05:53:36.010Z,99500.00
2023-02-06T05:56:03.206Z,99499.00
2023-02-06T05:58:30.354Z,99498.00
2023-02-06T06:00:57.723Z,99491.00
2023-02-06T06:03:24.922Z,99493.00
2023-02-06T06:05:53.627Z,99503.00
2023-02-06T06:08:21.597Z,99481.00
2023-02-06T06:10:51.864Z,99485.00
2023-02-06T06:13:19.370Z,99478.00
2023-02-06T06:15:49.676Z,99475.00
2023-02-06T06:18:16.760Z,99498.00
2023-02-06T06:20:43.799Z,99496.00
2023-02-06T06:23:11.125Z,99487.00
2023-02-06T06:25:38.422Z,99489.00
2023-02-06T06:28:06.195Z,99497.00
2023-02-06T06:30:35.412Z,99508.00
2023-02-06T06:33:02.728Z,99498.00
2023-02-06T06:35:29.783Z,99507.00
2023-02-06T06:37:56.884Z,99516.00
2023-02-06T06:40:24.022Z,99509.00
2023-02-06T06:42:51.137Z,99511.00
2023-02-06T06:45:18.380Z,99501.00
2023-02-06T06:47:45.443Z,99512.00
2023-02-06T06:50:12.466Z,99504.00
2023-02-06T06:52:39.562Z,99507.00
2023-02-06T06:55:07.244Z,99502.00
2023-02-06T06:57:34.284Z,99510.00
2023-02-06T07:00:01.376Z,99514.00
2023-02-06T07:02:28.760Z,99518.00
2023-02-06T07:04:56.173Z,99524.00
2023-02-06T07:07:23.346Z,99525.00
2023-02-06T07:09:50.642Z,99528.00
2023-02-06T07:12:17.718Z,99529.00
2023-02-06T07:14:44.824Z,99534.00
2023-02-06T07:17:11.905Z,99536.00
2023-02-06T07:19:38.982Z,99527.00
2023-02-06T07:22:06.077Z,99517.00
2023-02-06T07:24:33.123Z,99521.00
2023-02-06T07:27:00.224Z,99507.00
2023-02-06T07:29:27.443Z,99509.00
2023-02-06T07:31:54.606Z,99500.00
2023-02-06T07:34:21.756Z,99495.00
2023-02-06T07:36:48.994Z,99497.00
2023-02-06T07:39:16.115Z,99507.00
2023-02-06T07:41:43.332Z,99495.00
2023-02-06T07:44:14.092Z,99520.00
2023-02-06T07:46:42.461Z,99511.00
2023-02-06T07:49:11.525Z,99530.00
2023-02-06T07:51:39.068Z,99520.00
2023-02-06T07:54:06.174Z,99521.00
2023-02-06T07:56:33.295Z,99520.00
2023-02-06T07:59:00.449Z,99522.00
2023-02-06T08:01:27.838Z,99522.00
2023-02-06T08:03:55.809Z,99524.00
2023-02-06T08:06:25.311Z,99523.00
2023-02-06T08:08:55.988Z,99518.00
2023-02-06T08:11:26.334Z,99531.00
2023-02-06T08:13:53.586Z,99526.00
2023-02-06T08:16:23.224Z,99518.00
2023-02-06T08:18:50.819Z,99513.00
2023-02-06T08:21:22.906Z,99522.00
2023-02-06T08:24:00.879Z,99520.00
2023-02-06T08:26:29.988Z,99532.00
2023-02-06T08:29:00.586Z,99534.00
2023-02-06T08:31:37.657Z,99537.00
2023-02-06T08:34:07.126Z,99533.00
2023-02-06T08:36:34.911Z,99532.00
2023-02-06T08:39:03.955Z,99534.00
2023-02-06T08:41:37.148Z,99533.00
2023-02-06T08:44:09.129Z,99546.00
2023-02-06T08:46:36.167Z,99533.00
2023-02-06T08:49:12.988Z,99537.00
2023-02-06T08:51:40.873Z,99543.00
2023-02-06T08:54:13.143Z,99531.00
2023-02-06T08:56:40.538Z,99539.00
2023-02-06T08:59:08.409Z,99539.00
2023-02-06T09:01:37.627Z,99534.00
2023-02-06T09:04:09.617Z,99535.00
2023-02-06T09:06:39.327Z,99531.00
2023-02-06T09:09:08.604Z,99537.00
2023-02-06T09:11:36.355Z,99528.00
2023-02-06T09:14:05.996Z,99532.00
2023-02-06T09:16:33.665Z,99522.00
2023-02-06T09:19:02.437Z,99525.00
2023-02-06T09:21:33.623Z,99526.00
2023-02-06T09:24:05.737Z,99520.00
2023-02-06T09:26:44.801Z,99531.00
2023-02-06T09:29:20.848Z,99529.00
2023-02-06T09:31:47.965Z,99538.00
2023-02-06T09:34:15.106Z,99536.00
2023-02-06T09:36:42.297Z,99536.00
2023-02-06T09:39:10.149Z,99537.00
2023-02-06T09:41:52.180Z,99535.00
2023-02-06T09:44:29.681Z,99545.00
2023-02-06T09:47:31.519Z,99545.00
2023-02-06T09:50:07.691Z,99528.00
2023-02-06T09:52:53.709Z,99542.00
2023-02-06T09:55:33.959Z,99537.00
2023-02-06T09:58:19.987Z,99543.00
2023-02-06T10:01:11.112Z,99535.00
2023-02-06T10:03:48.001Z,99527.00
2023-02-06T10:06:22.017Z,99517.00
2023-02-06T10:09:12.784Z,99519.00
2023-02-06T10:12:05.414Z,99511.00
2023-02-06T10:14:51.781Z,99504.00
2023-02-06T10:17:37.271Z,99503.00
2023-02-06T10:20:22.932Z,99494.00
2023-02-06T10:23:10.406Z,99489.00
2023-02-06T10:26:00.211Z,99473.00
2023-02-06T10:28:30.705Z,99469.00
2023-02-06T10:31:26.723Z,99462.00
2023-02-06T10:34:20.769Z,99451.00
2023-02-06T10:37:19.260Z,99446.00
2023-02-06T10:40:16.126Z,99446.00
2023-02-06T10:43:37.088Z,99441.00
2023-02-06T10:46:33.127Z,99438.00
2023-02-06T10:49:23.758Z,99436.00
2023-02-06T10:52:02.304Z,99422.00
2023-02-06T10:54:39.335Z,99431.00
2023-02-06T10:57:17.682Z,99417.00
2023-02-06T10:59:53.594Z,99419.00
2023-02-06T11:03:01.347Z,99425.00
2023-02-06T11:05:34.142Z,99422.00
2023-02-06T11:08:44.840Z,99418.00
2023-02-06T11:11:34.926Z,99420.00
2023-02-06T11:14:30.931Z,99424.00
2023-02-06T11:17:01.885Z,99417.00
2023-02-06T11:19:36.652Z,99405.00
2023-02-06T11:22:14.939Z,99394.00
2023-02-06T11:25:04.805Z,99389.00
2023-02-06T11:27:35.406Z,99394.00
2023-02-06T11:30:36.791Z,99391.00
2023-02-06T11:33:31.743Z,99403.00
2023-02-06T11:35:59.998Z,99383.00
2023-02-06T11:38:30.365Z,99381.00
2023-02-06T11:41:07.354Z,99378.00
2023-02-06T11:43:50.697Z,99372.00
2023-02-06T11:46:27.025Z,99363.00
2023-02-06T11:48:58.628Z,99375.00
2023-02-06T11:52:05.112Z,99373.00
2023-02-06T11:54:35.534Z,99370.00
2023-02-06T11:57:21.444Z,99369.00
2023-02-06T12:00:02.573Z,99370.00
2023-02-06T12:02:36.665Z,99363.00
2023-02-06T12:05:16.980Z,99370.00
2023-02-06T12:08:06.495Z,99374.00
2023-02-06T12:10:48.359Z,99377.00
2023-02-06T12:13:20.391Z,99372.00
2023-02-06T12:15:50.770Z,99366.00
2023-02-06T12:18:38.378Z,99366.00
2023-02-06T12:21:13.266Z,99367.00
2023-02-06T12:23:56.208Z,99368.00
2023-02-06T12:26:28.302Z,99356.00
2023-02-06T12:29:17.849Z,99363.00
2023-02-06T12:32:07.519Z,99375.00
2023-02-06T12:34:55.745Z,99366.00
2023-02-06T12:37:39.991Z,99344.00
2023-02-06T12:40:51.644Z,99342.00
2023-02-06T12:43:20.187Z,99328.00
2023-02-06T12:46:22.700Z,99322.00
2023-02-06T12:49:04.518Z,99326.00
2023-02-06T12:51:46.549Z,99314.00
2023-02-06T12:54:28.638Z,99322.00
2023-02-06T12:57:16.257Z,99315.00
2023-02-06T13:00:20.496Z,99312.00
2023-02-06T13:03:18.208Z,99307.00
2023-02-06T13:05:50.700Z,99306.00
2023-02-06T13:08:26.715Z,99307.00
2023-02-06T13:11:07.568Z,99307.00
2023-02-06T13:13:40.584Z,99298.00
2023-02-06T13:16:09.419Z,99310.00
2023-02-06T13:18:42.111Z,99307.00
2023-02-06T13:21:36.809Z,99310.00
2023-02-06T13:24:03.762Z,99309.00
2023-02-06T13:26:51.688Z,99296.00
2023-02-06T13:29:34.838Z,99300.00
2023-02-06T13:32:20.167Z,99298.00
2023-02-06T13:34:50.568Z,99299.00
2023-02-06T13:37:32.576Z,99297.00
2023-02-06T13:40:32.194Z,99298.00
2023-02-06T13:43:07.382Z,99295.00
2023-02-06T13:45:54.828Z,99292.00
2023-02-06T13:48:49.497Z,99281.00
2023-02-06T13:51:55.768Z,99279.00
2023-02-06T13:54:50.851Z,99274.00
2023-02-06T13:57:39.729Z,99277.00
2023-02-06T14:00:15.653Z,99268.00
2023-02-06T14:02:52.158Z,99279.00
2023-02-06T14:05:59.343Z,99264.00
2023-02-06T14:08:54.250Z,99272.00
2023-02-06T14:12:04.220Z,99274.00
2023-02-06T14:14:51.688Z,99277.00
2023-02-06T14:17:44.371Z,99272.00
2023-02-06T14:20:31.935Z,99277.00
2023-02-06T14:23:32.806Z,99274.00
2023-02-06T14:26:18.546Z,99276.00
2023-02-06T14:29:26.848Z,99285.00
2023-02-06T14:32:31.187Z,99275.00
2023-02-06T14:35:25.729Z,99279.00
2023-02-06T14:38:43.967Z,99283.00
2023-02-06T14:41:11.484Z,99285.00
2023-02-06T14:43:43.150Z,99280.00
2023-02-06T14:46:13.380Z,99276.00
2023-02-06T14:48:44.890Z,99273.00
2023-02-06T14:51:45.521Z,99282.00
2023-02-06T14:54:38.462Z,99283.00
2023-02-06T14:57:16.998Z,99282.00
2023-02-06T15:00:00.267Z,99288.00
2023-02-06T15:02:37.473Z,99290.00
2023-02-06T15:05:05.709Z,99283.00
2023-02-06T15:07:38.461Z,99290.00
2023-02-06T15:10:18.329Z,99288.00
2023-02-06T15:12:52.829Z,99300.00
2023-02-06T15:15:27.539Z,99289.00
2023-02-06T15:18:04.752Z,99284.00
2023-02-06T15:20:36.445Z,99283.00
2023-02-06T15:23:17.977Z,99286.00
2023-02-06T15:26:05.191Z,99284.00
2023-02-06T15:28:34.647Z,99294.00
2023-02-06T15:31:02.491Z,99304.00
2023-02-06T15:33:33.523Z,99311.00
2023-02-06T15:36:03.860Z,99298.00
2023-02-06T15:38:33.474Z,99294.00
2023-02-06T15:41:07.108Z,99287.00
2023-02-06T15:43:35.263Z,99289.00
2023-02-06T15:46:05.128Z,99284.00
2023-02-06T15:48:49.068Z,99289.00
2023-02-06T15:51:24.890Z,99311.00
2023-02-06T15:54:24.929Z,99317.00
2023-02-06T15:56:59.135Z,99323.00
2023-02-06T15:59:28.194Z,99327.00
2023-02-06T16:01:59.541Z,99325.00
2023-02-06T16:04:40.805Z,99329.00
2023-02-06T16:07:19.403Z,99316.00
2023-02-06T16:10:08.210Z,99334.00
2023-02-06T16:12:39.156Z,99340.00
2023-02-06T16:16:10.033Z,99340.00
2023-02-06T16:18:39.780Z,99341.00
2023-02-06T16:21:19.356Z,99348.00
2023-02-06T16:24:08.531Z,99355.00
2023-02-06T16:26:47.341Z,99351.00
2023-02-06T16:29:21.767Z,99355.00
2023-02-06T16:31:59.111Z,99349.00
2023-02-06T16:34:39.469Z,99359.00
2023-02-06T16:37:14.961Z,99372.00
2023-02-06T16:39:44.084Z,99372.00
2023-02-06T16:42:20.949Z,99372.00
2023-02-06T16:45:00.016Z,99382.00
2023-02-06T16:47:27.888Z,99373.00
2023-02-06T16:49:55.106Z,99378.00
2023-02-06T16:52:26.143Z,99374.00
2023-02-06T16:54:56.034Z,99380.00
2023-02-06T16:57:30.798Z,99391.00
2023-02-06T16:59:58.898Z,99396.00
2023-02-06T17:02:28.453Z,99391.00
2023-02-06T17:04:56.100Z,99400.00
2023-02-06T17:07:26.464Z,99401.00
2023-02-06T17:09:56.817Z,99411.00
2023-02-06T17:12:24.125Z,99409.00
2023-02-06T17:14:51.311Z,99414.00
2023-02-06T17:17:22.323Z,99417.00
2023-02-06T17:19:51.972Z,99416.00
2023-02-06T17:22:20.022Z,99411.00
2023-02-06T17:24:47.150Z,99411.00
2023-02-06T17:27:21.346Z,99410.00
2023-02-06T17:29:50.497Z,99413.00
2023-02-06T17:32:22.220Z,99414.00
2023-02-06T17:34:54.143Z,99420.00
2023-02-06T17:37:21.337Z,99418.00
2023-02-06T17:39:52.779Z,99415.00
2023-02-06T17:42:22.095Z,99406.00
2023-02-06T17:44:49.534Z,99405.00
2023-02-06T17:47:16.773Z,99419.00
2023-02-06T17:49:43.981Z,99423.00
2023-02-06T17:52:11.026Z,99423.00
2023-02-06T17:54:38.246Z,99423.00
2023-02-06T17:57:05.596Z,99419.00
2023-02-06T17:59:32.642Z,99427.00
2023-02-06T18:01:59.746Z,99425.00
2023-02-06T18:04:27.427Z,99421.00
2023-02-06T18:06:54.619Z,99418.00
2023-02-06T18:09:22.292Z,99417.00
2023-02-06T18:11:49.370Z,99419.00
2023-02-06T18:14:16.559Z,99432.00
2023-02-06T18:16:45.613Z,99431.00
2023-02-06T18:19:12.998Z,99424.00
2023-02-06T18:21:40.421Z,99436.00
2023-02-06T18:24:08.107Z,99440.00
2023-02-06T18:26:35.265Z,99437.00
2023-02-06T18:29:06.472Z,99437.00
2023-02-06T18:31:36.411Z,99438.00
2023-02-06T18:34:08.315Z,99438.00
2023-02-06T18:36:37.749Z,99432.00
2023-02-06T18:39:06.474Z,99446.00
2023-02-06T18:41:52.798Z,99434.00
2023-02-06T18:44:19.919Z,99436.00
2023-02-06T18:46:47.135Z,99447.00
2023-02-06T18:49:14.209Z,99445.00
2023-02-06T18:51:41.346Z,99442.00
2023-02-06T18:54:10.007Z,99440.00
2023-02-06T18:56:39.071Z,99435.00
2023-02-06T18:59:06.822Z,99439.00
2023-02-06T19:01:35.717Z,99445.00
2023-02-06T19:04:02.795Z,99445.00
2023-02-06T19:06:35.393Z,99457.00
2023-02-06T19:09:08.074Z,99451.00
2023-02-06T19:11:38.440Z,99439.00
2023-02-06T19:14:07.940Z,99441.00
2023-02-06T19:16:38.487Z,99444.00
2023-02-06T19:19:07.764Z,99445.00
2023-02-06T19:21:35.378Z,99443.00
2023-02-06T19:24:02.533Z,99444.00
2023-02-06T19:26:30.452Z,99439.00
2023-02-06T19:28:59.432Z,99433.00
2023-02-06T19:31:27.317Z,99447.00
2023-02-06T19:33:59.898Z,99451.00
2023-02-06T19:36:29.534Z,99450.00
2023-02-06T19:39:00.737Z,99442.00
2023-02-06T19:41:31.349Z,99445.00
2023-02-06T19:44:03.372Z,99449.00
2023-02-06T19:46:31.277Z,99455.00
2023-02-06T19:48:58.594Z,99466.00
2023-02-06T19:51:33.129Z,99485.00
2023-02-06T19:54:01.026Z,99476.00
2023-02-06T19:56:40.734Z,99489.00
2023-02-06T19:59:21.062Z,99492.00
2023-02-06T20:02:00.433Z,99492.00
2023-02-06T20:04:34.227Z,99502.00
2023-02-06T20:07:06.976Z,99510.00
2023-02-06T20:09:34.443Z,99510.00
2023-02-06T20:12:01.564Z,99506.00
2023-02-06T20:14:29.135Z,99495.00
2023-02-06T20:16:56.411Z,99508.00
2023-02-06T20:19:27.963Z,99514.00
2023-02-06T20:21:59.035Z,99507.00
2023-02-06T20:24:30.546Z,99502.00
2023-02-06T20:27:00.892Z,99497.00
2023-02-06T20:29:32.458Z,99490.00
2023-02-06T20:32:00.802Z,99497.00
2023-02-06T20:34:28.823Z,99510.00
2023-02-06T20:36:56.681Z,99506.00
2023-02-06T20:39:25.041Z,99496.00
2023-02-06T20:41:52.656Z,99502.00
2023-02-06T20:44:20.939Z,99503.00
2023-02-06T20:46:48.581Z,99498.00
2023-02-06T20:49:20.308Z,99490.00
2023-02-06T20:51:49.270Z,99480.00
2023-02-06T20:54:17.903Z,99472.00
2023-02-06T20:56:45.201Z,99477.00
2023-02-06T20:59:16.070Z,99468.00
2023-02-06T21:01:44.184Z,99468.00
2023-02-06T21:04:14.646Z,99470.00
2023-02-06T21:06:42.491Z,99477.00
2023-02-06T21:09:10.764Z,99476.00
2023-02-06T21:11:44.261Z,99478.00
2023-02-06T21:14:12.964Z,99481.00
2023-02-06T21:16:40.789Z,99490.00
2023-02-06T21:19:10.800Z,99494.00
2023-02-06T21:21:39.176Z,99490.00
2023-02-06T21:24:06.996Z,99482.00
2023-02-06T21:26:35.060Z,99476.00
2023-02-06T21:29:02.672Z,99472.00
2023-02-06T21:31:37.787Z,99467.00
2023-02-06T21:34:16.307Z,99468.00
2023-02-06T21:36:44.356Z,99464.00
2023-02-06T21:39:17.677Z,99461.00
2023-02-06T21:41:45.582Z,99467.00
2023-02-06T21:44:13.000Z,99471.00
2023-02-06T21:46:40.401Z,99468.00
2023-02-06T21:49:09.485Z,99466.00
2023-02-06T21:51:36.550Z,99471.00
2023-02-06T21:54:04.113Z,99465.00
2023-02-06T21:56:31.712Z,99464.00
2023-02-06T21:58:58.920Z,99466.00
2023-02-06T22:01:30.424Z,99470.00
2023-02-06T22:03:58.220Z,99455.00
2023-02-06T22:06:26.635Z,99459.00
2023-02-06T22:08:56.098Z,99461.00
2023-02-06T22:11:30.000Z,99458.00
2023-02-06T22:14:07.490Z,99471.00
2023-02-06T22:16:35.359Z,99477.00
2023-02-06T22:19:03.161Z,99472.00
2023-02-06T22:21:32.407Z,99478.00
2023-02-06T22:24:06.277Z,99488.00
2023-02-06T22:26:38.638Z,99489.00
2023-02-06T22:29:14.687Z,99489.00
2023-02-06T22:31:45.820Z,99497.00
2023-02-06T22:34:20.292Z,99497.00
2023-02-06T22:36:49.129Z,99496.00
2023-02-06T22:39:18.285Z,99498.00
2023-02-06T22:41:46.544Z,99492.00
2023-02-06T22:44:16.660Z,99500.00
2023-02-06T22:46:47.372Z,99509.00
2023-02-06T22:49:14.893Z,99511.00
2023-02-06T22:51:42.967Z,99522.00
2023-02-06T22:54:12.123Z,99532.00
2023-02-06T22:56:41.143Z,99527.00
2023-02-06T22:59:17.313Z,99529.00
2023-02-06T23:01:48.565Z,99541.00
2023-02-06T23:04:18.351Z,99550.00
2023-02-06T23:06:46.817Z,99548.00
2023-02-06T23:09:26.835Z,99546.00
2023-02-06T23:11:55.485Z,99547.00
2023-02-06T23:14:22.700Z,99549.00
2023-02-06T23:16:50.073Z,99553.00
2023-02-06T23:19:19.177Z,99563.00
2023-02-06T23:21:49.213Z,99560.00
2023-02-06T23:24:16.675Z,99554.00
2023-02-06T23:26:46.530Z,99565.00
2023-02-06T23:29:17.318Z,99580.00
2023-02-06T23:31:46.654Z,99579.00
2023-02-06T23:34:15.895Z,99573.00
2023-02-06T23:36:44.907Z,99584.00
2023-02-06T23:39:12.568Z,99586.00
2023-02-06T23:41:40.067Z,99581.00
2023-02-06T23:44:10.281Z,99575.00
2023-02-06T23:46:39.300Z,99574.00
2023-02-06T23:49:07.246Z,99551.00
2023-02-06T23:51:35.853Z,99567.00
2023-02-06T23:54:03.408Z,99571.00
2023-02-06T23:56:32.198Z,99587.00
2023-02-06T23:59:01.144Z,99585.00
